sensor_id;sensor_type;location;lat;lon;timestamp;pressure;altitude;pressure_sealevel;temperature;humidity
58092;BME280;43896;48.178;11.578;2023-04-30T00:00:44;96058.03;;;12.25;68.57
58092;BME280;43896;48.178;11.578;2023-04-30T00:03:09;95997.97;;;11.86;69.34
58092;BME280;43896;48.178;11.578;2023-04-30T00:05:35;95997.56;;;11.98;68.57
58092;BME280;43896;48.178;11.578;2023-04-30T00:08:01;95969.47;;;11.73;70.08
58092;BME280;43896;48.178;11.578;2023-04-30T00:10:26;95990.13;;;11.94;68.94
58092;BME280;43896;48.178;11.578;2023-04-30T00:12:52;96002.81;;;11.98;69.14
58092;BME280;43896;48.178;11.578;2023-04-30T00:15:17;95968.56;;;11.31;70.56
58092;BME280;43896;48.178;11.578;2023-04-30T00:17:42;96021.13;;;12.33;69.09
58092;BME280;43896;48.178;11.578;2023-04-30T00:20:08;96031.69;;;12.25;68.83
58092;BME280;43896;48.178;11.578;2023-04-30T00:22:34;95993.63;;;12.19;68.89
58092;BME280;43896;48.178;11.578;2023-04-30T00:24:59;95972.34;;;12.29;67.60
58092;BME280;43896;48.178;11.578;2023-04-30T00:27:24;95970.50;;;11.88;68.76
58092;BME280;43896;48.178;11.578;2023-04-30T00:29:50;96019.94;;;11.94;69.38
58092;BME280;43896;48.178;11.578;2023-04-30T00:32:15;96025.16;;;11.35;71.69
58092;BME280;43896;48.178;11.578;2023-04-30T00:34:41;96008.16;;;11.21;71.42
58092;BME280;43896;48.178;11.578;2023-04-30T00:37:06;95992.00;;;11.16;72.06
58092;BME280;43896;48.178;11.578;2023-04-30T00:39:31;95958.06;;;10.70;72.69
58092;BME280;43896;48.178;11.578;2023-04-30T00:41:57;96041.63;;;11.37;72.36
58092;BME280;43896;48.178;11.578;2023-04-30T00:44:22;96015.81;;;11.06;72.91
58092;BME280;43896;48.178;11.578;2023-04-30T00:46:47;96004.97;;;11.52;71.41
58092;BME280;43896;48.178;11.578;2023-04-30T00:49:13;96031.84;;;11.72;70.14
58092;BME280;43896;48.178;11.578;2023-04-30T00:51:39;96018.38;;;11.24;71.70
58092;BME280;43896;48.178;11.578;2023-04-30T00:54:07;96014.59;;;11.78;69.24
58092;BME280;43896;48.178;11.578;2023-04-30T00:56:32;96024.75;;;12.07;69.13
58092;BME280;43896;48.178;11.578;2023-04-30T00:58:58;95972.41;;;11.11;71.04
58092;BME280;43896;48.178;11.578;2023-04-30T01:01:25;95979.34;;;11.71;68.25
58092;BME280;43896;48.178;11.578;2023-04-30T01:03:51;95966.56;;;12.00;67.01
58092;BME280;43896;48.178;11.578;2023-04-30T01:06:16;95988.63;;;11.91;67.53
58092;BME280;43896;48.178;11.578;2023-04-30T01:08:42;96031.78;;;11.48;70.72
58092;BME280;43896;48.178;11.578;2023-04-30T01:11:16;95991.41;;;11.90;67.83
58092;BME280;43896;48.178;11.578;2023-04-30T01:14:00;96075.59;;;11.91;70.11
58092;BME280;43896;48.178;11.578;2023-04-30T01:16:32;96063.97;;;12.10;69.50
58092;BME280;43896;48.178;11.578;2023-04-30T01:19:04;96038.94;;;12.47;67.77
58092;BME280;43896;48.178;11.578;2023-04-30T01:21:34;96028.31;;;11.90;68.67
58092;BME280;43896;48.178;11.578;2023-04-30T01:29:53;95983.19;;;11.34;70.67
58092;BME280;43896;48.178;11.578;2023-04-30T01:32:20;96049.09;;;11.58;69.66
58092;BME280;43896;48.178;11.578;2023-04-30T01:34:45;96063.75;;;11.18;71.33
58092;BME280;43896;48.178;11.578;2023-04-30T01:37:17;96042.50;;;10.85;72.49
58092;BME280;43896;48.178;11.578;2023-04-30T01:39:56;96007.63;;;11.52;70.61
58092;BME280;43896;48.178;11.578;2023-04-30T01:48:04;96037.66;;;11.33;71.10
58092;BME280;43896;48.178;11.578;2023-04-30T01:53:14;96079.34;;;11.46;70.78
58092;BME280;43896;48.178;11.578;2023-04-30T01:55:53;96094.16;;;11.13;72.91
58092;BME280;43896;48.178;11.578;2023-04-30T01:58:22;96072.22;;;11.73;70.05
58092;BME280;43896;48.178;11.578;2023-04-30T02:00:48;96018.16;;;10.83;72.09
58092;BME280;43896;48.178;11.578;2023-04-30T02:03:14;96050.44;;;10.94;72.49
58092;BME280;43896;48.178;11.578;2023-04-30T02:05:39;96059.81;;;11.22;72.14
58092;BME280;43896;48.178;11.578;2023-04-30T02:08:05;96041.94;;;10.74;73.34
58092;BME280;43896;48.178;11.578;2023-04-30T02:10:31;96006.63;;;10.58;72.96
58092;BME280;43896;48.178;11.578;2023-04-30T02:12:56;96013.41;;;10.87;72.30
58092;BME280;43896;48.178;11.578;2023-04-30T02:15:21;96045.94;;;11.12;71.92
58092;BME280;43896;48.178;11.578;2023-04-30T02:17:47;96020.47;;;10.86;71.61
58092;BME280;43896;48.178;11.578;2023-04-30T02:20:12;96038.94;;;10.95;72.33
58092;BME280;43896;48.178;11.578;2023-04-30T02:22:38;96021.81;;;10.91;72.47
58092;BME280;43896;48.178;11.578;2023-04-30T02:25:03;96032.94;;;10.84;72.66
58092;BME280;43896;48.178;11.578;2023-04-30T02:27:30;96044.59;;;11.08;71.41
58092;BME280;43896;48.178;11.578;2023-04-30T02:29:56;96061.53;;;10.79;73.38
58092;BME280;43896;48.178;11.578;2023-04-30T02:32:21;96053.13;;;10.31;74.62
58092;BME280;43896;48.178;11.578;2023-04-30T02:34:47;96040.91;;;10.48;73.65
58092;BME280;43896;48.178;11.578;2023-04-30T02:37:12;96087.44;;;10.92;73.92
58092;BME280;43896;48.178;11.578;2023-04-30T02:39:38;96071.63;;;11.18;71.88
58092;BME280;43896;48.178;11.578;2023-04-30T02:42:03;96005.09;;;10.11;73.99
58092;BME280;43896;48.178;11.578;2023-04-30T02:44:31;96017.41;;;10.29;73.60
58092;BME280;43896;48.178;11.578;2023-04-30T02:46:56;96082.53;;;10.97;73.38
58092;BME280;43896;48.178;11.578;2023-04-30T02:49:21;96009.84;;;10.70;72.64
58092;BME280;43896;48.178;11.578;2023-04-30T02:51:47;96053.09;;;11.02;72.25
58092;BME280;43896;48.178;11.578;2023-04-30T02:54:12;96047.91;;;10.58;73.25
58092;BME280;43896;48.178;11.578;2023-04-30T02:56:37;96086.63;;;11.52;70.67
58092;BME280;43896;48.178;11.578;2023-04-30T02:59:03;96036.88;;;10.36;74.03
58092;BME280;43896;48.178;11.578;2023-04-30T03:01:29;96070.91;;;10.38;74.77
58092;BME280;43896;48.178;11.578;2023-04-30T03:03:54;96107.03;;;10.72;74.29
58092;BME280;43896;48.178;11.578;2023-04-30T03:06:20;96027.22;;;10.63;72.32
58092;BME280;43896;48.178;11.578;2023-04-30T03:08:45;96112.50;;;11.91;70.60
58092;BME280;43896;48.178;11.578;2023-04-30T03:11:13;96059.97;;;10.68;72.84
58092;BME280;43896;48.178;11.578;2023-04-30T03:13:38;96041.81;;;10.21;74.04
58092;BME280;43896;48.178;11.578;2023-04-30T03:16:04;96013.94;;;10.46;72.08
58092;BME280;43896;48.178;11.578;2023-04-30T03:18:30;96005.91;;;10.74;71.88
58092;BME280;43896;48.178;11.578;2023-04-30T03:20:55;96033.00;;;10.93;71.42
58092;BME280;43896;48.178;11.578;2023-04-30T03:23:21;96015.00;;;10.80;71.41
58092;BME280;43896;48.178;11.578;2023-04-30T03:25:46;96006.66;;;10.22;72.31
58092;BME280;43896;48.178;11.578;2023-04-30T03:28:12;96054.00;;;10.40;73.33
58092;BME280;43896;48.178;11.578;2023-04-30T03:30:37;96083.72;;;10.77;73.04
58092;BME280;43896;48.178;11.578;2023-04-30T03:33:03;96026.28;;;10.46;72.02
58092;BME280;43896;48.178;11.578;2023-04-30T03:35:31;96044.16;;;10.86;71.37
58092;BME280;43896;48.178;11.578;2023-04-30T03:37:58;96027.38;;;10.87;71.52
58092;BME280;43896;48.178;11.578;2023-04-30T03:40:24;96086.41;;;10.85;71.95
58092;BME280;43896;48.178;11.578;2023-04-30T03:42:49;96002.22;;;10.23;72.62
58092;BME280;43896;48.178;11.578;2023-04-30T03:45:14;96034.59;;;9.87;74.83
58092;BME280;43896;48.178;11.578;2023-04-30T03:47:41;96059.97;;;9.97;74.97
58092;BME280;43896;48.178;11.578;2023-04-30T03:50:07;96060.28;;;10.29;74.51
58092;BME280;43896;48.178;11.578;2023-04-30T03:52:33;96027.16;;;10.19;73.32
58092;BME280;43896;48.178;11.578;2023-04-30T03:54:58;96087.78;;;10.53;73.15
58092;BME280;43896;48.178;11.578;2023-04-30T03:57:24;96016.25;;;9.77;74.70
58092;BME280;43896;48.178;11.578;2023-04-30T03:59:50;96037.75;;;10.27;73.91
58092;BME280;43896;48.178;11.578;2023-04-30T04:02:15;96047.97;;;10.66;72.10
58092;BME280;43896;48.178;11.578;2023-04-30T04:04:41;96021.47;;;10.67;71.66
58092;BME280;43896;48.178;11.578;2023-04-30T04:07:06;96023.44;;;10.39;72.65
58092;BME280;43896;48.178;11.578;2023-04-30T04:09:34;96046.97;;;10.67;71.97
58092;BME280;43896;48.178;11.578;2023-04-30T04:11:59;95989.19;;;10.57;71.20
58092;BME280;43896;48.178;11.578;2023-04-30T04:14:25;96027.16;;;10.55;71.34
58092;BME280;43896;48.178;11.578;2023-04-30T04:16:51;96015.53;;;10.83;69.72
58092;BME280;43896;48.178;11.578;2023-04-30T04:19:16;95985.63;;;10.22;71.53
58092;BME280;43896;48.178;11.578;2023-04-30T04:21:41;96026.41;;;10.08;72.52
58092;BME280;43896;48.178;11.578;2023-04-30T04:24:07;95988.50;;;9.75;73.48
58092;BME280;43896;48.178;11.578;2023-04-30T04:26:36;96057.75;;;10.38;72.56
58092;BME280;43896;48.178;11.578;2023-04-30T04:29:02;96044.13;;;10.60;70.93
58092;BME280;43896;48.178;11.578;2023-04-30T04:31:38;96051.22;;;10.42;72.01
58092;BME280;43896;48.178;11.578;2023-04-30T04:34:27;96068.09;;;10.75;70.56
58092;BME280;43896;48.178;11.578;2023-04-30T04:36:55;96015.53;;;10.83;69.44
58092;BME280;43896;48.178;11.578;2023-04-30T04:39:28;96080.94;;;11.04;70.51
58092;BME280;43896;48.178;11.578;2023-04-30T04:41:56;96015.59;;;11.00;69.59
58092;BME280;43896;48.178;11.578;2023-04-30T04:44:30;96106.34;;;11.40;69.32
58092;BME280;43896;48.178;11.578;2023-04-30T04:46:56;96102.34;;;11.36;69.22
58092;BME280;43896;48.178;11.578;2023-04-30T04:49:22;96074.72;;;11.14;69.13
58092;BME280;43896;48.178;11.578;2023-04-30T04:51:48;96042.59;;;10.31;71.34
58092;BME280;43896;48.178;11.578;2023-04-30T04:54:13;96060.34;;;10.02;72.99
58092;BME280;43896;48.178;11.578;2023-04-30T04:56:39;96055.94;;;10.38;71.42
58092;BME280;43896;48.178;11.578;2023-04-30T04:59:04;96074.66;;;10.79;70.40
58092;BME280;43896;48.178;11.578;2023-04-30T05:01:29;96051.31;;;10.32;72.17
58092;BME280;43896;48.178;11.578;2023-04-30T05:03:55;96121.59;;;11.10;70.37
58092;BME280;43896;48.178;11.578;2023-04-30T05:06:20;96100.13;;;11.49;69.29
58092;BME280;43896;48.178;11.578;2023-04-30T05:08:46;96108.91;;;11.05;70.50
58092;BME280;43896;48.178;11.578;2023-04-30T05:11:11;96120.19;;;10.36;72.14
58092;BME280;43896;48.178;11.578;2023-04-30T05:13:36;96114.09;;;10.35;73.37
58092;BME280;43896;48.178;11.578;2023-04-30T05:16:02;96123.13;;;10.05;73.83
58092;BME280;43896;48.178;11.578;2023-04-30T05:18:27;96113.88;;;10.01;74.18
58092;BME280;43896;48.178;11.578;2023-04-30T05:20:53;96122.63;;;9.91;74.21
58092;BME280;43896;48.178;11.578;2023-04-30T05:23:18;96122.75;;;10.18;73.40
58092;BME280;43896;48.178;11.578;2023-04-30T05:25:43;96098.13;;;10.19;72.90
58092;BME280;43896;48.178;11.578;2023-04-30T05:28:10;96111.84;;;10.58;71.99
58092;BME280;43896;48.178;11.578;2023-04-30T05:30:36;96135.13;;;10.71;71.86
58092;BME280;43896;48.178;11.578;2023-04-30T05:33:01;96140.81;;;10.48;72.33
58092;BME280;43896;48.178;11.578;2023-04-30T05:35:27;96071.19;;;10.53;71.13
58092;BME280;43896;48.178;11.578;2023-04-30T05:37:53;96089.59;;;10.35;72.14
58092;BME280;43896;48.178;11.578;2023-04-30T05:40:18;96106.19;;;10.71;71.03
58092;BME280;43896;48.178;11.578;2023-04-30T05:42:43;96134.50;;;10.77;71.45
58092;BME280;43896;48.178;11.578;2023-04-30T05:45:09;96134.75;;;10.48;72.34
58092;BME280;43896;48.178;11.578;2023-04-30T05:47:36;96123.34;;;10.39;72.06
58092;BME280;43896;48.178;11.578;2023-04-30T05:50:02;96103.06;;;10.49;71.86
58092;BME280;43896;48.178;11.578;2023-04-30T05:52:27;96095.56;;;10.09;72.72
58092;BME280;43896;48.178;11.578;2023-04-30T05:54:52;96076.19;;;10.10;72.86
58092;BME280;43896;48.178;11.578;2023-04-30T05:57:18;96099.97;;;10.36;72.70
58092;BME280;43896;48.178;11.578;2023-04-30T05:59:43;96094.06;;;10.52;71.15
58092;BME280;43896;48.178;11.578;2023-04-30T06:02:08;96101.94;;;10.52;71.23
58092;BME280;43896;48.178;11.578;2023-04-30T06:04:34;96123.66;;;10.54;71.47
58092;BME280;43896;48.178;11.578;2023-04-30T06:07:00;96060.81;;;10.15;71.63
58092;BME280;43896;48.178;11.578;2023-04-30T06:09:25;96097.50;;;10.53;70.93
58092;BME280;43896;48.178;11.578;2023-04-30T06:11:50;96074.34;;;10.38;71.52
58092;BME280;43896;48.178;11.578;2023-04-30T06:14:17;96103.16;;;10.84;70.96
58092;BME280;43896;48.178;11.578;2023-04-30T06:17:01;96135.09;;;11.33;70.89
58092;BME280;43896;48.178;11.578;2023-04-30T06:19:33;96118.72;;;10.95;70.57
58092;BME280;43896;48.178;11.578;2023-04-30T06:21:58;96091.25;;;10.36;72.61
58092;BME280;43896;48.178;11.578;2023-04-30T06:24:23;96124.13;;;10.76;71.39
58092;BME280;43896;48.178;11.578;2023-04-30T06:26:51;96116.78;;;10.79;71.52
58092;BME280;43896;48.178;11.578;2023-04-30T06:29:22;96094.47;;;10.83;70.76
58092;BME280;43896;48.178;11.578;2023-04-30T06:31:50;96057.50;;;10.31;71.05
58092;BME280;43896;48.178;11.578;2023-04-30T06:34:19;96060.91;;;10.41;71.30
58092;BME280;43896;48.178;11.578;2023-04-30T06:36:45;96060.56;;;10.62;70.31
58092;BME280;43896;48.178;11.578;2023-04-30T06:39:13;96101.47;;;11.27;68.88
58092;BME280;43896;48.178;11.578;2023-04-30T06:41:39;96126.69;;;11.38;69.66
58092;BME280;43896;48.178;11.578;2023-04-30T06:44:04;96129.28;;;11.90;69.57
58092;BME280;43896;48.178;11.578;2023-04-30T06:46:32;96085.97;;;11.24;68.45
58092;BME280;43896;48.178;11.578;2023-04-30T06:48:58;96094.94;;;11.66;68.52
58092;BME280;43896;48.178;11.578;2023-04-30T06:51:24;96093.97;;;11.75;67.92
58092;BME280;43896;48.178;11.578;2023-04-30T06:53:49;96056.69;;;12.04;66.74
58092;BME280;43896;48.178;11.578;2023-04-30T06:56:15;96063.47;;;12.23;65.25
58092;BME280;43896;48.178;11.578;2023-04-30T06:58:40;96083.91;;;12.21;65.49
58092;BME280;43896;48.178;11.578;2023-04-30T07:01:09;96087.38;;;12.30;65.79
58092;BME280;43896;48.178;11.578;2023-04-30T07:03:34;96047.00;;;12.37;64.50
58092;BME280;43896;48.178;11.578;2023-04-30T07:05:59;96058.03;;;12.25;65.09
58092;BME280;43896;48.178;11.578;2023-04-30T07:08:25;96063.00;;;12.61;64.05
58092;BME280;43896;48.178;11.578;2023-04-30T07:10:50;96086.41;;;12.47;64.27
58092;BME280;43896;48.178;11.578;2023-04-30T07:13:15;96101.28;;;12.48;65.13
58092;BME280;43896;48.178;11.578;2023-04-30T07:15:41;96116.25;;;12.31;64.44
58092;BME280;43896;48.178;11.578;2023-04-30T07:18:06;96128.81;;;12.54;64.95
58092;BME280;43896;48.178;11.578;2023-04-30T07:20:32;96121.47;;;12.15;65.65
58092;BME280;43896;48.178;11.578;2023-04-30T07:22:58;96119.56;;;12.50;64.51
58092;BME280;43896;48.178;11.578;2023-04-30T07:25:23;96095.81;;;12.91;63.75
58092;BME280;43896;48.178;11.578;2023-04-30T07:27:50;96085.91;;;12.68;64.15
58092;BME280;43896;48.178;11.578;2023-04-30T07:30:16;96101.41;;;13.04;65.16
58092;BME280;43896;48.178;11.578;2023-04-30T07:32:42;96117.06;;;13.39;64.69
58092;BME280;43896;48.178;11.578;2023-04-30T07:35:08;96126.34;;;13.35;63.83
58092;BME280;43896;48.178;11.578;2023-04-30T07:37:33;96076.31;;;13.33;62.77
58092;BME280;43896;48.178;11.578;2023-04-30T07:39:58;96103.59;;;13.65;61.91
58092;BME280;43896;48.178;11.578;2023-04-30T07:42:24;96106.63;;;13.62;61.49
58092;BME280;43896;48.178;11.578;2023-04-30T07:44:50;96109.00;;;13.80;61.67
58092;BME280;43896;48.178;11.578;2023-04-30T07:47:17;96113.78;;;13.84;61.73
58092;BME280;43896;48.178;11.578;2023-04-30T07:49:42;96080.72;;;13.41;60.85
58092;BME280;43896;48.178;11.578;2023-04-30T07:52:07;96074.78;;;13.47;61.81
58092;BME280;43896;48.178;11.578;2023-04-30T07:54:35;96061.06;;;13.52;62.05
58092;BME280;43896;48.178;11.578;2023-04-30T07:57:03;96106.44;;;13.63;61.76
58092;BME280;43896;48.178;11.578;2023-04-30T07:59:28;96099.16;;;13.65;62.94
58092;BME280;43896;48.178;11.578;2023-04-30T08:01:53;96107.59;;;13.61;63.09
58092;BME280;43896;48.178;11.578;2023-04-30T08:04:19;96057.78;;;13.49;63.86
58092;BME280;43896;48.178;11.578;2023-04-30T08:06:44;96105.59;;;14.02;63.00
58092;BME280;43896;48.178;11.578;2023-04-30T08:09:10;96065.03;;;13.87;61.69
58092;BME280;43896;48.178;11.578;2023-04-30T08:11:35;96073.13;;;13.46;62.46
58092;BME280;43896;48.178;11.578;2023-04-30T08:14:00;96057.06;;;12.67;63.75
58092;BME280;43896;48.178;11.578;2023-04-30T08:16:26;96115.94;;;13.00;64.35
58092;BME280;43896;48.178;11.578;2023-04-30T08:18:51;96120.06;;;12.62;66.28
58092;BME280;43896;48.178;11.578;2023-04-30T08:21:16;96102.53;;;13.18;65.35
58092;BME280;43896;48.178;11.578;2023-04-30T08:23:42;96111.97;;;13.12;64.50
58092;BME280;43896;48.178;11.578;2023-04-30T08:26:07;96057.19;;;13.06;63.65
58092;BME280;43896;48.178;11.578;2023-04-30T08:28:33;96109.69;;;14.13;62.57
58092;BME280;43896;48.178;11.578;2023-04-30T08:30:58;96064.41;;;13.77;61.79
58092;BME280;43896;48.178;11.578;2023-04-30T08:33:23;96118.47;;;13.74;62.39
58092;BME280;43896;48.178;11.578;2023-04-30T08:35:49;96048.53;;;13.85;61.77
58092;BME280;43896;48.178;11.578;2023-04-30T08:38:15;96077.63;;;13.77;61.99
58092;BME280;43896;48.178;11.578;2023-04-30T08:40:41;96115.41;;;13.94;60.98
58092;BME280;43896;48.178;11.578;2023-04-30T08:43:10;96103.00;;;13.55;62.78
58092;BME280;43896;48.178;11.578;2023-04-30T08:45:36;96105.06;;;13.76;61.75
58092;BME280;43896;48.178;11.578;2023-04-30T08:48:04;96113.09;;;13.91;60.39
58092;BME280;43896;48.178;11.578;2023-04-30T08:50:32;96111.28;;;14.22;59.39
58092;BME280;43896;48.178;11.578;2023-04-30T08:52:59;96108.56;;;14.39;59.00
58092;BME280;43896;48.178;11.578;2023-04-30T08:55:28;96084.94;;;14.84;57.77
58092;BME280;43896;48.178;11.578;2023-04-30T08:57:53;96071.72;;;14.60;56.92
58092;BME280;43896;48.178;11.578;2023-04-30T09:00:19;96108.09;;;14.81;57.12
58092;BME280;43896;48.178;11.578;2023-04-30T09:02:45;96047.56;;;14.09;58.07
58092;BME280;43896;48.178;11.578;2023-04-30T09:05:12;96117.25;;;14.94;58.76
58092;BME280;43896;48.178;11.578;2023-04-30T09:07:39;96105.78;;;15.54;57.37
58092;BME280;43896;48.178;11.578;2023-04-30T09:10:15;96104.91;;;15.24;57.12
58092;BME280;43896;48.178;11.578;2023-04-30T09:12:41;96080.28;;;15.00;57.71
58092;BME280;43896;48.178;11.578;2023-04-30T09:15:12;96121.75;;;15.46;56.24
58092;BME280;43896;48.178;11.578;2023-04-30T09:17:38;96124.34;;;15.99;54.70
58092;BME280;43896;48.178;11.578;2023-04-30T09:20:10;96118.84;;;15.56;55.90
58092;BME280;43896;48.178;11.578;2023-04-30T09:22:37;96121.75;;;14.93;56.48
58092;BME280;43896;48.178;11.578;2023-04-30T09:25:04;96116.03;;;15.05;56.88
58092;BME280;43896;48.178;11.578;2023-04-30T09:27:30;96117.94;;;14.73;56.90
58092;BME280;43896;48.178;11.578;2023-04-30T09:29:55;96098.44;;;14.11;57.48
58092;BME280;43896;48.178;11.578;2023-04-30T09:32:20;96095.00;;;14.11;57.74
58092;BME280;43896;48.178;11.578;2023-04-30T09:34:46;96110.75;;;15.05;56.15
58092;BME280;43896;48.178;11.578;2023-04-30T09:37:12;96118.13;;;15.09;55.60
58092;BME280;43896;48.178;11.578;2023-04-30T09:39:52;96112.38;;;14.36;55.99
58092;BME280;43896;48.178;11.578;2023-04-30T09:42:18;96125.94;;;14.33;57.14
58092;BME280;43896;48.178;11.578;2023-04-30T09:44:44;96105.03;;;14.47;56.93
58092;BME280;43896;48.178;11.578;2023-04-30T09:47:11;96104.00;;;14.79;56.92
58092;BME280;43896;48.178;11.578;2023-04-30T09:49:47;96127.25;;;14.69;57.54
58092;BME280;43896;48.178;11.578;2023-04-30T09:52:15;96114.69;;;14.62;58.36
58092;BME280;43896;48.178;11.578;2023-04-30T09:54:43;96100.59;;;14.16;58.67
58092;BME280;43896;48.178;11.578;2023-04-30T09:57:10;96096.06;;;14.24;57.89
58092;BME280;43896;48.178;11.578;2023-04-30T09:59:36;96109.25;;;13.62;58.98
58092;BME280;43896;48.178;11.578;2023-04-30T10:02:06;96090.34;;;13.34;60.13
58092;BME280;43896;48.178;11.578;2023-04-30T10:04:37;96112.69;;;13.71;60.40
58092;BME280;43896;48.178;11.578;2023-04-30T10:07:09;96107.28;;;13.47;60.27
58092;BME280;43896;48.178;11.578;2023-04-30T10:09:41;96099.88;;;13.91;59.24
58092;BME280;43896;48.178;11.578;2023-04-30T10:15:04;96113.50;;;13.71;58.59
58092;BME280;43896;48.178;11.578;2023-04-30T10:17:32;96091.28;;;13.41;58.80
58092;BME280;43896;48.178;11.578;2023-04-30T10:20:00;96113.84;;;14.07;58.26
58092;BME280;43896;48.178;11.578;2023-04-30T10:22:29;96092.25;;;13.96;57.84
58092;BME280;43896;48.178;11.578;2023-04-30T10:24:55;96112.03;;;14.08;57.64
58092;BME280;43896;48.178;11.578;2023-04-30T10:27:21;96105.13;;;14.61;55.84
58092;BME280;43896;48.178;11.578;2023-04-30T10:29:46;96054.41;;;14.73;54.64
58092;BME280;43896;48.178;11.578;2023-04-30T10:32:12;96080.88;;;14.50;54.96
58092;BME280;43896;48.178;11.578;2023-04-30T10:34:55;96095.63;;;14.90;54.49
58092;BME280;43896;48.178;11.578;2023-04-30T10:37:44;96022.75;;;14.33;55.09
58092;BME280;43896;48.178;11.578;2023-04-30T10:40:11;96043.47;;;14.76;55.49
58092;BME280;43896;48.178;11.578;2023-04-30T10:42:44;96059.22;;;15.07;55.26
58092;BME280;43896;48.178;11.578;2023-04-30T10:45:10;96052.47;;;15.05;53.68
58092;BME280;43896;48.178;11.578;2023-04-30T10:47:35;96071.66;;;15.36;52.59
58092;BME280;43896;48.178;11.578;2023-04-30T10:50:04;96065.88;;;15.03;54.81
58092;BME280;43896;48.178;11.578;2023-04-30T10:52:29;96043.13;;;14.94;53.33
58092;BME280;43896;48.178;11.578;2023-04-30T10:54:55;96068.22;;;15.51;52.77
58092;BME280;43896;48.178;11.578;2023-04-30T10:57:20;96069.75;;;15.45;52.56
58092;BME280;43896;48.178;11.578;2023-04-30T11:02:15;96082.28;;;14.60;54.26
58092;BME280;43896;48.178;11.578;2023-04-30T11:07:31;96084.44;;;15.03;52.72
58092;BME280;43896;48.178;11.578;2023-04-30T11:09:57;96070.38;;;15.03;52.66
58092;BME280;43896;48.178;11.578;2023-04-30T11:12:25;96067.94;;;15.75;51.86
58092;BME280;43896;48.178;11.578;2023-04-30T11:15:45;96041.44;;;15.75;50.00
58092;BME280;43896;48.178;11.578;2023-04-30T11:17:47;96037.03;;;16.84;49.19
58092;BME280;43896;48.178;11.578;2023-04-30T11:20:18;96048.72;;;16.68;49.15
58092;BME280;43896;48.178;11.578;2023-04-30T11:22:44;96031.66;;;16.12;49.11
58092;BME280;43896;48.178;11.578;2023-04-30T11:25:10;96068.72;;;16.06;49.63
58092;BME280;43896;48.178;11.578;2023-04-30T11:27:43;96056.16;;;16.15;49.83
58092;BME280;43896;48.178;11.578;2023-04-30T11:30:16;96052.03;;;17.27;47.29
58092;BME280;43896;48.178;11.578;2023-04-30T11:32:48;96050.59;;;17.24;45.25
58092;BME280;43896;48.178;11.578;2023-04-30T11:35:17;96019.06;;;17.14;47.91
58092;BME280;43896;48.178;11.578;2023-04-30T11:37:43;95979.28;;;17.34;46.88
58092;BME280;43896;48.178;11.578;2023-04-30T11:40:11;96038.03;;;17.11;48.14
58092;BME280;43896;48.178;11.578;2023-04-30T11:42:38;96013.88;;;16.35;48.51
58092;BME280;43896;48.178;11.578;2023-04-30T11:45:09;96047.34;;;16.50;47.36
58092;BME280;43896;48.178;11.578;2023-04-30T11:47:45;96037.50;;;16.94;47.58
58092;BME280;43896;48.178;11.578;2023-04-30T11:50:15;96028.41;;;17.10;44.60
58092;BME280;43896;48.178;11.578;2023-04-30T11:52:42;95985.50;;;16.57;45.96
58092;BME280;43896;48.178;11.578;2023-04-30T11:55:14;96051.16;;;16.91;46.94
58092;BME280;43896;48.178;11.578;2023-04-30T11:57:42;96032.78;;;16.68;47.40
58092;BME280;43896;48.178;11.578;2023-04-30T12:00:29;96037.47;;;16.44;47.85
58092;BME280;43896;48.178;11.578;2023-04-30T12:02:55;96047.69;;;16.69;48.03
58092;BME280;43896;48.178;11.578;2023-04-30T12:05:23;96025.16;;;16.00;48.77
58092;BME280;43896;48.178;11.578;2023-04-30T12:07:56;96039.84;;;15.81;48.90
58092;BME280;43896;48.178;11.578;2023-04-30T12:10:23;96047.91;;;15.43;50.26
58092;BME280;43896;48.178;11.578;2023-04-30T12:12:50;96036.94;;;15.61;49.93
58092;BME280;43896;48.178;11.578;2023-04-30T12:15:18;96006.16;;;15.30;50.34
58092;BME280;43896;48.178;11.578;2023-04-30T12:17:47;96014.19;;;15.82;50.49
58092;BME280;43896;48.178;11.578;2023-04-30T12:20:13;95988.78;;;15.57;50.32
58092;BME280;43896;48.178;11.578;2023-04-30T12:22:39;96020.59;;;15.57;50.12
58092;BME280;43896;48.178;11.578;2023-04-30T12:25:12;96031.91;;;15.66;50.48
58092;BME280;43896;48.178;11.578;2023-04-30T12:27:39;96041.31;;;15.24;51.33
58092;BME280;43896;48.178;11.578;2023-04-30T12:30:05;96039.50;;;15.40;50.45
58092;BME280;43896;48.178;11.578;2023-04-30T12:32:38;95987.97;;;15.12;51.23
58092;BME280;43896;48.178;11.578;2023-04-30T12:35:04;96043.06;;;15.62;49.56
58092;BME280;43896;48.178;11.578;2023-04-30T12:37:30;96019.03;;;15.18;50.75
58092;BME280;43896;48.178;11.578;2023-04-30T12:39:55;96031.66;;;15.61;51.00
58092;BME280;43896;48.178;11.578;2023-04-30T12:42:20;96001.13;;;15.21;49.90
58092;BME280;43896;48.178;11.578;2023-04-30T12:44:46;95999.69;;;15.18;50.14
58092;BME280;43896;48.178;11.578;2023-04-30T12:47:12;96046.06;;;15.59;49.41
58092;BME280;43896;48.178;11.578;2023-04-30T12:49:38;96036.50;;;15.43;49.28
58092;BME280;43896;48.178;11.578;2023-04-30T12:52:11;96016.38;;;15.78;49.93
58092;BME280;43896;48.178;11.578;2023-04-30T12:54:38;96024.13;;;16.16;48.96
58092;BME280;43896;48.178;11.578;2023-04-30T12:57:11;96004.22;;;16.05;49.37
58092;BME280;43896;48.178;11.578;2023-04-30T12:59:37;96027.38;;;15.97;49.08
58092;BME280;43896;48.178;11.578;2023-04-30T13:02:13;96008.38;;;16.36;49.08
58092;BME280;43896;48.178;11.578;2023-04-30T13:04:42;96006.50;;;16.52;47.95
58092;BME280;43896;48.178;11.578;2023-04-30T13:07:08;95975.75;;;16.64;47.57
58092;BME280;43896;48.178;11.578;2023-04-30T13:09:35;95998.66;;;16.86;46.34
58092;BME280;43896;48.178;11.578;2023-04-30T13:12:02;95971.50;;;17.33;46.70